Time;durP1;ratioP1;P1;durP2;ratioP2;P2;SDS_P1;SDS_P2;PMS_P1;PMS_P2;Temp;Humidity;BMP_temperature;BMP_pressure;BME280_temperature;BME280_humidity;BME280_pressure;Samples;Min_cycle;Max_cycle;Signal;HPM_P1;HPM_P2
2022/10/11 00:00:15;;;;;;;7.53;4.32;;;18.90;96.70;;;;;;5081381;28;20864;-70
2022/10/11 00:02:44;;;;;;;6.95;4.32;;;18.80;96.70;;;;;;5081983;28;20043;-70
2022/10/11 00:05:12;;;;;;;6.47;4.00;;;18.70;96.70;;;;;;5082505;28;20044;-71
2022/10/11 00:07:40;;;;;;;7.13;4.53;;;18.70;96.70;;;;;;5078785;28;20041;-71
2022/10/11 00:10:08;;;;;;;5.95;4.00;;;18.70;96.70;;;;;;5083035;28;20404;-70
2022/10/11 00:12:36;;;;;;;5.95;4.63;;;18.80;96.70;;;;;;5083062;28;20498;-71
2022/10/11 00:15:05;;;;;;;7.28;4.75;;;18.80;96.70;;;;;;5082430;28;20047;-70
2022/10/11 00:17:33;;;;;;;6.47;5.03;;;18.80;96.70;;;;;;5080987;28;20139;-71
2022/10/11 00:20:03;;;;;;;6.85;4.60;;;18.80;96.70;;;;;;5080605;28;20130;-70
2022/10/11 00:22:30;;;;;;;4.88;4.38;;;18.80;96.70;;;;;;5098290;28;20052;-70
2022/10/11 00:24:58;;;;;;;7.35;4.45;;;18.80;96.70;;;;;;5081982;28;20044;-70
2022/10/11 00:27:27;;;;;;;7.10;4.65;;;18.80;96.70;;;;;;5081806;28;20502;-71
2022/10/11 00:29:55;;;;;;;7.30;4.75;;;18.80;96.70;;;;;;5081932;28;20089;-71
2022/10/11 00:32:22;;;;;;;6.25;4.28;;;18.70;96.70;;;;;;5081743;28;20064;-71
2022/10/11 00:34:50;;;;;;;8.05;4.75;;;18.60;96.70;;;;;;5108983;28;20541;-71
2022/10/11 00:37:20;;;;;;;5.88;4.68;;;18.50;96.70;;;;;;5077706;28;20578;-71
2022/10/11 00:39:49;;;;;;;5.93;4.65;;;18.50;96.70;;;;;;5107019;27;20109;-71
2022/10/11 00:42:17;;;;;;;5.72;4.32;;;18.50;96.70;;;;;;5084763;28;20043;-71
2022/10/11 00:44:46;;;;;;;4.95;4.32;;;18.40;96.70;;;;;;5085162;28;20592;-71
2022/10/11 00:47:16;;;;;;;6.35;4.35;;;18.30;96.70;;;;;;5084943;28;20044;-71
2022/10/11 00:49:48;;;;;;;7.93;4.65;;;18.30;96.70;;;;;;5085987;28;20570;-70
2022/10/11 00:52:27;;;;;;;5.45;4.35;;;18.30;96.70;;;;;;5083722;28;20052;-71
2022/10/11 00:54:57;;;;;;;7.90;4.70;;;18.30;96.70;;;;;;5081606;28;20044;-70
2022/10/11 00:57:28;;;;;;;7.50;4.90;;;18.30;96.70;;;;;;5079151;28;20040;-69
2022/10/11 00:59:57;;;;;;;8.40;5.05;;;18.30;96.70;;;;;;5085739;28;20048;-69
2022/10/11 01:02:26;;;;;;;6.55;5.53;;;18.30;96.70;;;;;;5081399;28;20062;-70
2022/10/11 01:04:54;;;;;;;6.88;4.95;;;18.40;96.70;;;;;;5086480;28;20044;-69
2022/10/11 01:07:46;;;;;;;8.18;5.13;;;18.40;96.70;;;;;;5083112;28;20397;-69
2022/10/11 01:10:17;;;;;;;8.63;4.80;;;18.30;96.70;;;;;;5097564;28;20094;-70
2022/10/11 01:12:55;;;;;;;7.97;5.18;;;18.30;96.70;;;;;;5085141;28;20044;-70
2022/10/11 01:15:30;;;;;;;6.88;5.93;;;18.30;96.70;;;;;;5084735;28;20048;-71
2022/10/11 01:18:05;;;;;;;8.95;6.15;;;18.30;96.70;;;;;;5078848;28;20123;-71
2022/10/11 01:20:41;;;;;;;8.27;5.82;;;18.30;96.70;;;;;;5067471;28;20059;-70
2022/10/11 01:23:49;;;;;;;6.73;5.70;;;18.30;96.70;;;;;;5084333;28;20138;-70
2022/10/11 01:26:51;;;;;;;8.15;5.55;;;18.40;96.70;;;;;;5084278;28;20306;-71
2022/10/11 01:29:33;;;;;;;11.18;7.15;;;18.40;96.70;;;;;;5083748;28;20036;-71
2022/10/11 01:32:11;;;;;;;7.90;5.90;;;18.40;96.70;;;;;;5082385;28;20741;-70
2022/10/11 01:34:46;;;;;;;8.50;6.07;;;18.40;96.70;;;;;;5085876;28;20044;-70
2022/10/11 01:37:23;;;;;;;6.80;6.05;;;18.30;96.70;;;;;;5082458;28;20040;-70
2022/10/11 01:39:57;;;;;;;7.82;6.20;;;18.30;96.70;;;;;;5080913;28;20059;-70
2022/10/11 01:42:26;;;;;;;8.55;6.22;;;18.30;96.70;;;;;;5082587;28;20172;-70
2022/10/11 01:44:56;;;;;;;8.07;5.15;;;18.30;96.70;;;;;;5083909;28;20036;-70
2022/10/11 01:47:26;;;;;;;9.75;5.20;;;18.30;96.70;;;;;;5082052;28;20052;-71
2022/10/11 01:49:56;;;;;;;7.57;5.20;;;18.30;96.70;;;;;;5100363;28;20058;-71
2022/10/11 01:52:26;;;;;;;8.50;5.15;;;18.20;96.70;;;;;;5084083;28;20514;-71
2022/10/11 01:55:14;;;;;;;6.93;5.15;;;18.20;96.70;;;;;;5085165;28;20035;-70
2022/10/11 01:58:14;;;;;;;6.80;4.68;;;18.20;96.70;;;;;;5083899;28;20071;-70
2022/10/11 02:00:51;;;;;;;6.00;4.53;;;18.10;96.70;;;;;;5035347;28;20158;-71
2022/10/11 02:03:32;;;;;;;7.25;4.53;;;18.00;96.70;;;;;;5084890;28;20747;-71
2022/10/11 02:06:07;;;;;;;6.60;4.30;;;17.90;96.70;;;;;;5082582;28;20044;-71
2022/10/11 02:08:43;;;;;;;5.63;4.80;;;17.90;96.70;;;;;;5081304;28;20048;-70
2022/10/11 02:11:17;;;;;;;10.47;5.13;;;17.90;96.70;;;;;;5083088;28;20616;-70
2022/10/11 02:13:53;;;;;;;5.07;4.57;;;17.80;96.70;;;;;;5083853;28;21076;-70
2022/10/11 02:16:25;;;;;;;7.30;4.73;;;17.80;96.70;;;;;;5082167;28;20505;-71
2022/10/11 02:18:56;;;;;;;7.25;4.88;;;17.80;96.70;;;;;;5081946;28;20043;-71
2022/10/11 02:21:25;;;;;;;5.13;4.38;;;17.80;96.70;;;;;;5082210;28;20048;-70
2022/10/11 02:23:56;;;;;;;5.25;4.63;;;17.80;96.70;;;;;;5083896;28;20470;-71
2022/10/11 02:26:28;;;;;;;9.52;4.60;;;17.80;96.70;;;;;;5084996;28;20131;-71
2022/10/11 02:29:00;;;;;;;4.68;4.28;;;17.80;96.70;;;;;;5078081;28;20142;-71
2022/10/11 02:31:31;;;;;;;6.75;4.80;;;17.80;96.70;;;;;;5084750;28;20492;-71
2022/10/11 02:34:08;;;;;;;8.07;3.70;;;17.80;96.70;;;;;;5081864;28;20044;-70
2022/10/11 02:36:43;;;;;;;4.70;4.20;;;17.80;96.70;;;;;;5084893;28;20048;-70
2022/10/11 02:39:15;;;;;;;7.82;4.40;;;17.90;96.70;;;;;;5078843;28;20163;-70
2022/10/11 02:41:45;;;;;;;6.07;4.65;;;17.80;96.70;;;;;;5088394;28;20532;-70
2022/10/11 02:44:19;;;;;;;7.28;4.80;;;17.80;96.70;;;;;;5090788;28;20525;-70
2022/10/11 02:46:49;;;;;;;5.35;4.57;;;17.90;96.70;;;;;;5084423;28;20055;-71
2022/10/11 02:49:19;;;;;;;5.13;4.60;;;17.80;96.70;;;;;;5081752;28;20044;-71
2022/10/11 02:51:47;;;;;;;6.35;4.70;;;17.70;96.70;;;;;;5082789;28;20056;-71
2022/10/11 02:54:15;;;;;;;5.88;4.75;;;17.60;96.70;;;;;;5084023;28;20150;-71
2022/10/11 02:56:43;;;;;;;5.45;4.70;;;17.60;96.70;;;;;;5084048;28;20051;-70
2022/10/11 02:59:11;;;;;;;9.88;5.30;;;17.60;96.70;;;;;;5083504;28;20205;-70
2022/10/11 03:01:39;;;;;;;7.50;4.78;;;17.70;96.70;;;;;;5080055;28;20131;-71
2022/10/11 03:04:07;;;;;;;5.93;4.85;;;17.80;96.70;;;;;;5082099;28;20036;-70
2022/10/11 03:06:36;;;;;;;9.45;5.43;;;17.80;96.70;;;;;;5083487;28;20407;-70
2022/10/11 03:09:04;;;;;;;7.55;4.95;;;17.80;96.70;;;;;;5071708;28;20064;-70
2022/10/11 03:11:33;;;;;;;7.88;5.20;;;17.70;96.70;;;;;;5081398;28;20108;-71
2022/10/11 03:14:01;;;;;;;5.55;4.95;;;17.60;96.70;;;;;;5083233;28;20106;-71
2022/10/11 03:16:29;;;;;;;5.63;4.40;;;17.50;96.70;;;;;;5082504;28;20048;-70
2022/10/11 03:18:56;;;;;;;7.97;4.80;;;17.60;96.70;;;;;;5083500;28;20051;-70
2022/10/11 03:21:25;;;;;;;8.43;4.72;;;17.60;96.70;;;;;;5082097;28;20044;-70
2022/10/11 03:23:54;;;;;;;7.45;5.15;;;17.50;96.70;;;;;;5083571;28;20582;-70
2022/10/11 03:26:22;;;;;;;7.97;4.70;;;17.50;96.70;;;;;;5083361;28;20052;-70
2022/10/11 03:28:50;;;;;;;6.38;4.70;;;17.60;96.70;;;;;;5082155;28;20073;-69
2022/10/11 03:31:19;;;;;;;8.57;4.85;;;17.50;96.70;;;;;;5081111;28;20660;-69
2022/10/11 03:33:47;;;;;;;5.53;4.38;;;17.50;96.70;;;;;;5077733;28;20071;-70
2022/10/11 03:36:15;;;;;;;5.47;4.90;;;17.50;96.70;;;;;;5074201;28;20041;-70
2022/10/11 03:38:43;;;;;;;5.65;4.57;;;17.40;96.70;;;;;;5081797;28;20040;-70
2022/10/11 03:41:12;;;;;;;7.68;5.00;;;17.30;96.70;;;;;;5083265;28;20048;-69
2022/10/11 03:43:40;;;;;;;4.93;4.35;;;17.30;96.70;;;;;;5081831;28;20650;-69
2022/10/11 03:46:08;;;;;;;7.00;4.47;;;17.30;96.70;;;;;;5076749;28;20055;-69
2022/10/11 03:48:36;;;;;;;10.13;6.03;;;17.40;96.70;;;;;;5076859;28;20074;-69
2022/10/11 03:51:04;;;;;;;6.75;4.50;;;17.40;96.70;;;;;;5092096;28;20535;-69
2022/10/11 03:53:32;;;;;;;7.60;4.50;;;17.40;96.70;;;;;;5079331;28;20555;-70
2022/10/11 03:56:00;;;;;;;5.75;4.15;;;17.40;96.70;;;;;;5079344;28;20059;-70
2022/10/11 03:58:36;;;;;;;5.70;4.30;;;17.40;96.70;;;;;;5083781;28;20094;-70
2022/10/11 04:01:04;;;;;;;4.68;4.10;;;17.20;96.70;;;;;;5077092;28;20573;-69
2022/10/11 04:03:32;;;;;;;4.32;3.83;;;17.10;96.70;;;;;;5083494;28;20557;-69
2022/10/11 04:06:00;;;;;;;4.38;3.78;;;17.20;96.70;;;;;;5082563;28;20861;-70
2022/10/11 04:08:29;;;;;;;5.45;4.18;;;17.10;96.70;;;;;;5083103;28;20413;-69
2022/10/11 04:10:56;;;;;;;4.05;3.55;;;17.10;96.70;;;;;;5082332;28;20584;-70
2022/10/11 04:13:24;;;;;;;4.88;3.28;;;17.00;96.70;;;;;;5082700;28;20040;-70
2022/10/11 04:15:54;;;;;;;5.90;3.95;;;17.10;96.70;;;;;;5084363;28;20414;-70
2022/10/11 04:18:22;;;;;;;5.03;3.70;;;17.10;96.70;;;;;;5086689;28;20087;-70
2022/10/11 04:20:50;;;;;;;6.28;3.90;;;17.00;96.70;;;;;;5086925;28;20047;-71
2022/10/11 04:23:18;;;;;;;5.65;4.07;;;17.00;96.70;;;;;;5084239;28;20040;-70
2022/10/11 04:25:47;;;;;;;4.40;3.97;;;17.00;96.70;;;;;;5086846;28;20486;-70
2022/10/11 04:28:14;;;;;;;6.82;4.90;;;17.10;96.70;;;;;;5084701;28;20047;-71
2022/10/11 04:30:43;;;;;;;4.85;4.30;;;17.10;96.70;;;;;;5085932;28;20134;-71
2022/10/11 04:33:12;;;;;;;6.30;3.97;;;17.10;96.70;;;;;;5086727;28;20325;-71
2022/10/11 04:35:40;;;;;;;8.75;4.53;;;17.00;96.70;;;;;;5082444;28;20102;-71
2022/10/11 04:38:08;;;;;;;8.18;4.80;;;17.10;96.70;;;;;;5086133;28;20037;-70
2022/10/11 04:40:36;;;;;;;11.18;5.03;;;17.00;96.70;;;;;;5081712;28;20383;-71
2022/10/11 04:43:04;;;;;;;6.00;3.90;;;16.90;96.70;;;;;;5084291;28;20043;-71
2022/10/11 04:45:32;;;;;;;6.15;3.80;;;16.90;96.70;;;;;;5102428;28;20040;-71
2022/10/11 04:47:59;;;;;;;6.55;4.32;;;16.90;96.70;;;;;;5085663;28;20040;-71
2022/10/11 04:50:29;;;;;;;7.05;4.88;;;17.00;96.70;;;;;;5085241;28;20044;-71
2022/10/11 04:52:57;;;;;;;8.27;4.55;;;17.00;96.70;;;;;;5085546;28;20139;-70
2022/10/11 04:55:24;;;;;;;5.13;4.45;;;17.00;96.70;;;;;;5086723;28;20070;-71
2022/10/11 04:57:52;;;;;;;9.23;4.90;;;17.00;96.70;;;;;;5085542;28;20036;-71
2022/10/11 05:00:20;;;;;;;9.32;5.15;;;16.90;96.70;;;;;;5086878;28;20043;-71
2022/10/11 05:03:00;;;;;;;7.05;4.90;;;17.00;96.70;;;;;;5085874;28;20055;-71
2022/10/11 05:05:30;;;;;;;7.50;5.10;;;17.10;96.70;;;;;;5083625;28;20055;-71
2022/10/11 05:07:57;;;;;;;7.50;5.38;;;17.00;96.70;;;;;;5085076;28;20528;-70
2022/10/11 05:10:25;;;;;;;11.40;5.53;;;17.00;96.70;;;;;;5084831;28;20123;-71
2022/10/11 05:12:53;;;;;;;11.27;5.85;;;16.90;96.70;;;;;;5079804;28;20521;-71
2022/10/11 05:15:21;;;;;;;7.13;5.10;;;16.90;96.70;;;;;;5079693;28;20422;-70
2022/10/11 05:17:48;;;;;;;8.00;5.50;;;16.80;96.70;;;;;;5084263;28;20055;-70
2022/10/11 05:20:16;;;;;;;10.88;4.95;;;16.80;96.70;;;;;;5069958;28;20060;-70
2022/10/11 05:22:46;;;;;;;8.55;5.18;;;16.80;96.70;;;;;;5085488;28;20093;-70
2022/10/11 05:25:13;;;;;;;6.20;5.43;;;16.80;96.70;;;;;;5084957;28;20430;-70
2022/10/11 05:27:41;;;;;;;7.20;5.35;;;16.80;96.70;;;;;;5083043;28;20825;-71
2022/10/11 05:30:10;;;;;;;7.13;5.00;;;16.80;96.70;;;;;;5080077;28;20068;-71
2022/10/11 05:32:37;;;;;;;6.97;5.20;;;16.80;96.70;;;;;;5083405;28;20071;-71
2022/10/11 05:35:06;;;;;;;7.07;5.13;;;16.70;96.70;;;;;;5068206;28;20044;-70
2022/10/11 05:37:34;;;;;;;9.05;5.07;;;16.70;96.70;;;;;;5075254;28;20135;-70
2022/10/11 05:40:04;;;;;;;6.30;5.13;;;16.80;96.70;;;;;;5085960;28;20485;-71
2022/10/11 05:42:32;;;;;;;6.50;5.60;;;16.80;96.70;;;;;;5085409;28;20532;-70
2022/10/11 05:44:59;;;;;;;9.98;5.22;;;16.70;96.70;;;;;;5084790;28;20043;-70
2022/10/11 05:47:27;;;;;;;10.30;6.10;;;16.70;96.70;;;;;;5117706;27;20040;-71
2022/10/11 05:49:55;;;;;;;8.95;5.20;;;16.70;96.70;;;;;;5085730;28;20052;-71
2022/10/11 05:52:23;;;;;;;11.10;6.10;;;16.70;96.70;;;;;;5084034;28;20048;-71
2022/10/11 05:54:51;;;;;;;7.78;5.75;;;16.70;96.70;;;;;;5085115;28;20386;-71
2022/10/11 05:57:20;;;;;;;13.05;6.00;;;16.70;96.70;;;;;;5081178;28;20056;-71
2022/10/11 05:59:47;;;;;;;8.82;5.63;;;16.60;96.70;;;;;;5075156;28;20494;-71
2022/10/11 06:02:15;;;;;;;9.13;6.22;;;16.60;96.70;;;;;;5085745;28;20105;-71
2022/10/11 06:04:43;;;;;;;13.68;8.48;;;16.70;96.70;;;;;;5083437;28;20036;-71
2022/10/11 06:07:11;;;;;;;17.13;9.45;;;16.70;96.70;;;;;;5086981;28;20130;-71
2022/10/11 06:09:39;;;;;;;15.63;9.15;;;16.70;96.70;;;;;;5079989;28;20043;-71
2022/10/11 06:12:06;;;;;;;14.13;9.38;;;16.70;96.70;;;;;;5071084;28;20045;-71
2022/10/11 06:14:36;;;;;;;16.10;9.23;;;16.60;96.70;;;;;;5083892;28;20040;-71
2022/10/11 06:17:04;;;;;;;15.57;9.63;;;16.60;96.70;;;;;;5083459;28;20080;-71
2022/10/11 06:19:32;;;;;;;19.80;11.25;;;16.70;96.70;;;;;;5083995;28;20486;-71
2022/10/11 06:22:00;;;;;;;20.63;12.30;;;16.60;96.70;;;;;;5084988;28;20085;-71
2022/10/11 06:24:27;;;;;;;21.60;12.13;;;16.70;96.70;;;;;;5082852;28;20040;-71
2022/10/11 06:26:55;;;;;;;18.27;12.50;;;16.70;96.70;;;;;;5079085;28;20046;-71
2022/10/11 06:29:23;;;;;;;22.42;12.18;;;16.70;96.70;;;;;;5080409;28;20131;-71
2022/10/11 06:31:52;;;;;;;21.40;12.73;;;16.70;96.70;;;;;;5084736;28;20468;-71
2022/10/11 06:34:20;;;;;;;22.80;13.18;;;16.70;96.70;;;;;;5084039;28;20070;-71
2022/10/11 06:36:48;;;;;;;24.13;12.95;;;16.70;96.70;;;;;;5080336;28;20554;-71
2022/10/11 06:39:16;;;;;;;28.27;13.20;;;16.70;96.70;;;;;;5082059;28;20085;-71
2022/10/11 06:41:44;;;;;;;24.60;13.65;;;16.80;96.70;;;;;;5084007;28;20497;-72
2022/10/11 06:44:12;;;;;;;21.80;12.68;;;16.80;96.70;;;;;;5083652;28;20136;-71
2022/10/11 06:46:41;;;;;;;26.23;13.73;;;16.80;96.70;;;;;;5066686;28;20490;-71
2022/10/11 06:49:10;;;;;;;30.48;14.43;;;16.90;96.70;;;;;;5083650;28;20047;-73
2022/10/11 06:51:38;;;;;;;33.95;16.20;;;16.90;96.70;;;;;;5100209;28;20044;-72
2022/10/11 06:54:06;;;;;;;37.72;16.48;;;16.90;96.70;;;;;;5084124;28;20039;-73
2022/10/11 06:56:34;;;;;;;34.22;15.80;;;16.90;96.70;;;;;;5083815;28;20054;-72
2022/10/11 06:59:02;;;;;;;34.63;16.33;;;17.00;96.70;;;;;;5083618;28;20044;-71
2022/10/11 07:01:31;;;;;;;32.60;15.98;;;17.00;96.70;;;;;;5062010;28;20044;-72
2022/10/11 07:04:00;;;;;;;32.88;15.82;;;17.00;96.70;;;;;;5082852;28;20684;-72
2022/10/11 07:06:30;;;;;;;31.88;14.80;;;17.10;96.70;;;;;;5083040;28;20448;-72
2022/10/11 07:08:59;;;;;;;29.27;13.52;;;17.10;96.70;;;;;;5078947;28;20078;-72
2022/10/11 07:11:27;;;;;;;20.88;11.80;;;17.20;96.70;;;;;;5083125;28;20039;-74
2022/10/11 07:13:56;;;;;;;18.42;11.82;;;17.30;96.70;;;;;;5083553;28;20040;-74
2022/10/11 07:16:25;;;;;;;20.35;11.55;;;17.30;96.70;;;;;;5082825;28;20039;-72
2022/10/11 07:18:55;;;;;;;18.17;11.05;;;17.40;96.70;;;;;;5041582;28;20047;-72
2022/10/11 07:21:29;;;;;;;14.82;10.32;;;17.30;96.70;;;;;;5041967;28;20114;-72
2022/10/11 07:23:58;;;;;;;18.35;11.40;;;17.40;96.70;;;;;;5037970;28;20103;-73
2022/10/11 07:26:26;;;;;;;15.65;10.77;;;17.50;96.70;;;;;;5043623;28;20072;-72
2022/10/11 07:28:53;;;;;;;14.88;10.55;;;17.50;96.70;;;;;;5043356;28;20502;-74
2022/10/11 07:31:23;;;;;;;15.63;10.30;;;17.60;96.70;;;;;;5042391;28;20044;-73
2022/10/11 07:33:51;;;;;;;18.95;9.80;;;17.70;96.70;;;;;;5041636;28;20041;-75
2022/10/11 07:36:19;;;;;;;14.48;9.70;;;17.70;96.70;;;;;;5037505;28;20044;-73
2022/10/11 07:38:49;;;;;;;17.02;10.85;;;17.80;96.70;;;;;;5041531;28;20388;-74
2022/10/11 07:41:17;;;;;;;17.75;10.48;;;17.90;96.70;;;;;;5040386;28;20048;-74
2022/10/11 07:43:46;;;;;;;16.05;10.68;;;18.00;96.70;;;;;;5043631;28;20045;-73
2022/10/11 07:46:14;;;;;;;15.57;10.45;;;18.00;96.70;;;;;;5043363;28;20057;-74
2022/10/11 07:48:42;;;;;;;13.27;9.57;;;18.10;96.70;;;;;;5043068;28;20052;-74
2022/10/11 07:51:12;;;;;;;14.65;9.93;;;18.20;96.70;;;;;;5042935;28;20069;-74
2022/10/11 07:53:41;;;;;;;11.63;9.35;;;18.40;96.70;;;;;;5043075;28;20045;-74
2022/10/11 07:56:12;;;;;;;12.77;9.52;;;18.40;96.70;;;;;;5043310;28;20041;-74
2022/10/11 07:58:39;;;;;;;13.38;9.73;;;18.60;96.70;;;;;;5043110;28;20041;-74
2022/10/11 08:01:08;;;;;;;12.15;9.38;;;18.60;96.70;;;;;;5028423;28;20051;-74
2022/10/11 08:03:36;;;;;;;14.35;9.65;;;18.60;96.70;;;;;;5024948;28;20459;-74
2022/10/11 08:06:06;;;;;;;11.60;8.90;;;18.60;96.70;;;;;;5042787;28;20115;-74
2022/10/11 08:08:35;;;;;;;11.55;9.52;;;18.70;96.70;;;;;;5040874;28;20045;-74
2022/10/11 08:11:03;;;;;;;12.80;9.15;;;18.80;96.70;;;;;;5041273;28;20041;-74
2022/10/11 08:13:32;;;;;;;9.88;8.82;;;18.90;96.70;;;;;;5040659;28;20163;-74
2022/10/11 08:16:00;;;;;;;11.25;9.63;;;18.90;96.70;;;;;;5041099;28;20487;-74
2022/10/11 08:18:29;;;;;;;10.23;9.02;;;19.00;96.70;;;;;;5076838;28;20048;-74
2022/10/11 08:20:56;;;;;;;12.18;9.35;;;19.00;96.70;;;;;;5082342;28;20047;-74
2022/10/11 08:23:25;;;;;;;11.68;9.63;;;19.10;96.70;;;;;;5081501;28;20044;-75
2022/10/11 08:25:57;;;;;;;11.98;9.25;;;19.30;96.70;;;;;;5095995;28;20051;-74
2022/10/11 08:28:25;;;;;;;12.32;10.02;;;19.40;96.70;;;;;;5081681;28;20562;-75
2022/10/11 08:30:54;;;;;;;11.73;9.52;;;19.50;96.70;;;;;;5083740;28;20155;-74
2022/10/11 08:33:23;;;;;;;11.20;9.35;;;19.60;96.70;;;;;;5081558;28;20078;-76
2022/10/11 08:35:52;;;;;;;12.00;9.43;;;19.70;96.70;;;;;;5072644;28;20598;-75
2022/10/11 08:38:20;;;;;;;10.55;9.45;;;19.80;96.70;;;;;;5080227;28;20037;-73
2022/10/11 08:40:50;;;;;;;13.77;9.40;;;19.80;96.70;;;;;;5082805;28;20072;-73
2022/10/11 08:43:31;;;;;;;14.05;9.40;;;19.90;96.70;;;;;;5080106;28;20052;-72
2022/10/11 08:46:03;;;;;;;12.23;8.77;;;20.00;96.70;;;;;;5080102;28;20044;-72
2022/10/11 08:48:35;;;;;;;12.88;9.82;;;20.10;96.70;;;;;;5077179;28;20093;-73
2022/10/11 08:51:13;;;;;;;11.65;9.00;;;20.20;96.70;;;;;;5083495;28;20063;-75
2022/10/11 08:53:48;;;;;;;10.68;8.60;;;20.10;96.70;;;;;;5064786;28;20049;-75
2022/10/11 08:56:17;;;;;;;12.05;9.10;;;20.20;96.70;;;;;;5081775;28;20170;-75
2022/10/11 08:58:50;;;;;;;13.07;9.23;;;20.30;96.70;;;;;;5080598;28;20509;-75
2022/10/11 09:01:22;;;;;;;8.48;7.40;;;20.30;96.70;;;;;;5082475;28;20163;-75
2022/10/11 09:03:51;;;;;;;11.68;8.57;;;20.40;96.70;;;;;;5082599;28;20529;-75
2022/10/11 09:06:36;;;;;;;10.40;8.88;;;20.50;96.70;;;;;;5081719;28;20506;-75
2022/10/11 09:09:35;;;;;;;9.70;7.93;;;20.60;96.70;;;;;;5079972;28;20036;-74
2022/10/11 09:12:15;;;;;;;11.10;8.30;;;20.70;96.70;;;;;;5083941;28;20064;-74
2022/10/11 09:15:02;;;;;;;11.57;8.80;;;20.80;96.70;;;;;;5084626;28;20093;-73
2022/10/11 09:17:40;;;;;;;;;;;20.80;96.70;;;;;;5082318;28;20398;-74
2022/10/11 09:20:43;;;;;;;12.52;8.25;;;20.90;96.70;;;;;;5067556;28;19931;-73
2022/10/11 09:23:22;;;;;;;11.40;7.78;;;21.00;96.70;;;;;;5095419;28;20607;-74
2022/10/11 09:25:57;;;;;;;8.80;7.00;;;21.10;96.70;;;;;;5081060;28;20059;-74
2022/10/11 09:28:38;;;;;;;9.32;7.15;;;21.10;96.70;;;;;;5084660;28;20044;-74
2022/10/11 09:31:09;;;;;;;9.60;7.90;;;21.20;96.70;;;;;;5083907;28;20040;-74
2022/10/11 09:33:44;;;;;;;10.05;7.32;;;21.30;96.70;;;;;;5084409;28;20089;-74
2022/10/11 09:36:19;;;;;;;9.77;7.45;;;21.40;96.70;;;;;;5082240;28;20067;-74
2022/10/11 09:38:52;;;;;;;11.43;7.93;;;21.50;96.70;;;;;;5083934;28;20064;-74
2022/10/11 09:41:25;;;;;;;13.43;8.48;;;21.70;96.70;;;;;;5083810;28;20047;-73
2022/10/11 09:43:54;;;;;;;8.88;7.75;;;21.80;96.70;;;;;;5082443;28;20044;-73
2022/10/11 09:46:28;;;;;;;12.65;8.27;;;21.90;96.70;;;;;;5083711;28;20036;-74
2022/10/11 09:49:02;;;;;;;9.13;7.18;;;22.00;96.70;;;;;;5084243;28;20452;-74
2022/10/11 09:51:31;;;;;;;8.93;7.60;;;22.20;96.70;;;;;;5083324;28;20048;-74
2022/10/11 09:54:02;;;;;;;12.35;8.10;;;22.30;96.70;;;;;;5083774;28;20146;-74
2022/10/11 09:56:32;;;;;;;10.48;7.88;;;22.30;96.70;;;;;;5082874;28;20108;-74
2022/10/11 09:59:15;;;;;;;9.07;7.55;;;22.30;96.70;;;;;;5083736;28;20040;-75
2022/10/11 10:01:43;;;;;;;8.90;7.80;;;22.40;96.70;;;;;;5081743;28;20054;-75
2022/10/11 10:04:17;;;;;;;10.60;7.15;;;22.70;96.70;;;;;;5077726;28;20060;-75
2022/10/11 10:06:45;;;;;;;8.55;7.07;;;22.80;96.70;;;;;;5083048;28;20051;-75
2022/10/11 10:09:23;;;;;;;7.55;6.35;;;22.90;96.70;;;;;;5084722;28;20048;-74
2022/10/11 10:11:51;;;;;;;8.90;6.75;;;22.80;96.70;;;;;;5079029;28;20121;-74
2022/10/11 10:14:22;;;;;;;7.97;6.40;;;23.00;96.70;;;;;;5096800;28;20040;-74
2022/10/11 10:16:59;;;;;;;8.32;6.60;;;23.10;96.70;;;;;;5080376;28;20509;-74
2022/10/11 10:19:34;;;;;;;9.35;6.68;;;23.20;96.70;;;;;;5081927;28;20090;-74
2022/10/11 10:22:02;;;;;;;7.40;5.80;;;23.20;96.70;;;;;;5078532;28;20134;-73
2022/10/11 10:24:40;;;;;;;8.77;5.90;;;23.40;96.70;;;;;;5083292;28;20439;-74
2022/10/11 10:27:17;;;;;;;7.18;5.60;;;23.60;96.70;;;;;;5080257;28;20495;-74
2022/10/11 10:30:01;;;;;;;7.25;6.43;;;23.80;96.70;;;;;;5077771;28;20124;-73
2022/10/11 10:32:35;;;;;;;8.40;5.80;;;23.70;96.70;;;;;;5082448;28;20063;-74
2022/10/11 10:35:15;;;;;;;7.28;5.63;;;23.80;96.70;;;;;;5082389;28;20101;-74
2022/10/11 10:37:51;;;;;;;6.70;5.90;;;23.90;96.70;;;;;;5081393;28;20055;-74
2022/10/11 10:40:24;;;;;;;7.43;6.15;;;24.00;96.70;;;;;;5081890;28;20043;-74
2022/10/11 10:42:52;;;;;;;5.85;5.32;;;24.10;96.70;;;;;;5082857;28;20115;-74
2022/10/11 10:45:28;;;;;;;6.82;5.35;;;24.10;96.70;;;;;;5083480;28;20048;-74
2022/10/11 10:48:03;;;;;;;;;;;24.20;96.70;;;;;;5080662;28;21625;-74
2022/10/11 10:50:44;;;;;;;7.68;6.40;;;24.30;96.70;;;;;;5078290;28;20588;-73
2022/10/11 10:53:24;;;;;;;6.55;5.32;;;24.40;96.70;;;;;;5081517;28;20055;-74
2022/10/11 10:56:02;;;;;;;6.45;5.75;;;24.50;96.70;;;;;;5082831;28;20448;-74
2022/10/11 10:58:57;;;;;;;8.63;5.93;;;24.50;96.70;;;;;;5080325;28;20170;-74
2022/10/11 11:01:27;;;;;;;6.30;5.70;;;24.60;96.70;;;;;;5077645;28;20206;-74
2022/10/11 11:04:06;;;;;;;7.03;5.78;;;24.70;96.70;;;;;;5081823;28;20053;-74
2022/10/11 11:06:56;;;;;;;9.52;6.15;;;24.80;96.70;;;;;;5066525;28;20886;-75
2022/10/11 11:09:33;;;;;;;6.45;5.85;;;24.90;96.70;;;;;;5082101;28;20048;-74
2022/10/11 11:12:14;;;;;;;8.18;6.13;;;25.00;96.70;;;;;;5083512;28;20047;-74
2022/10/11 11:14:52;;;;;;;6.68;5.20;;;25.10;96.70;;;;;;5081352;28;20066;-74
2022/10/11 11:17:29;;;;;;;6.50;5.85;;;25.20;96.70;;;;;;5081880;28;20052;-74
2022/10/11 11:20:17;;;;;;;8.32;6.35;;;25.20;96.70;;;;;;5082294;28;20116;-74
2022/10/11 11:22:54;;;;;;;7.57;5.55;;;25.00;96.70;;;;;;5079755;28;20115;-74
2022/10/11 11:25:31;;;;;;;7.07;5.57;;;24.90;96.70;;;;;;5079009;28;20055;-74
2022/10/11 11:28:16;;;;;;;9.10;6.00;;;24.90;96.70;;;;;;5089319;28;20037;-74
2022/10/11 11:30:54;;;;;;;7.43;5.95;;;24.90;96.70;;;;;;5082388;28;20047;-75
2022/10/11 11:33:32;;;;;;;6.55;5.88;;;25.20;96.70;;;;;;5082530;28;20075;-74
2022/10/11 11:36:04;;;;;;;7.57;5.68;;;25.20;96.70;;;;;;5083735;28;20129;-74
2022/10/11 11:38:44;;;;;;;7.15;5.35;;;25.20;96.70;;;;;;5081945;28;20590;-74
2022/10/11 11:41:16;;;;;;;6.35;5.63;;;25.40;96.70;;;;;;5077253;28;20047;-75
2022/10/11 11:43:59;;;;;;;10.02;5.82;;;25.60;96.70;;;;;;5082222;28;20642;-74
2022/10/11 11:46:31;;;;;;;9.65;6.22;;;25.80;96.70;;;;;;5081375;28;20153;-74
2022/10/11 11:49:03;;;;;;;7.43;5.47;;;25.90;96.70;;;;;;5081702;28;20056;-73
2022/10/11 11:51:36;;;;;;;5.47;4.97;;;25.90;96.70;;;;;;5081342;28;20457;-73
2022/10/11 11:54:20;;;;;;;6.65;5.63;;;25.90;96.70;;;;;;5083045;28;20044;-73
2022/10/11 11:56:57;;;;;;;7.05;6.22;;;26.00;96.70;;;;;;5081038;28;20167;-73
2022/10/11 11:59:34;;;;;;;5.80;5.30;;;26.10;96.70;;;;;;5081228;28;20036;-73
2022/10/11 12:02:30;;;;;;;6.03;5.45;;;26.20;96.70;;;;;;5082602;28;20139;-73
2022/10/11 12:04:58;;;;;;;7.07;5.70;;;26.30;96.70;;;;;;5080532;28;20778;-73
2022/10/11 12:07:28;;;;;;;6.82;5.97;;;26.40;96.70;;;;;;5082666;28;20044;-73
2022/10/11 12:10:21;;;;;;;8.73;6.15;;;26.50;96.70;;;;;;5080491;28;20135;-74
2022/10/11 12:13:21;;;;;;;9.40;5.82;;;26.60;96.70;;;;;;5057566;28;20057;-74
2022/10/11 12:16:08;;;;;;;5.88;5.35;;;26.50;96.70;;;;;;5077328;28;20063;-75
2022/10/11 12:18:59;;;;;;;7.50;5.72;;;26.50;96.70;;;;;;5093943;28;20148;-74
2022/10/11 12:21:31;;;;;;;6.25;5.65;;;26.40;96.70;;;;;;5023563;28;20053;-74
2022/10/11 12:24:08;;;;;;;7.47;6.30;;;26.40;96.70;;;;;;5021850;28;20340;-73
2022/10/11 12:26:40;;;;;;;10.00;6.22;;;26.60;96.70;;;;;;5041434;28;20064;-74
2022/10/11 12:29:41;;;;;;;10.68;7.03;;;26.70;96.70;;;;;;5037600;28;20043;-74
2022/10/11 12:32:48;;;;;;;7.07;5.72;;;26.80;96.70;;;;;;5022599;28;20091;-74
2022/10/11 12:35:36;;;;;;;7.43;6.60;;;26.90;96.70;;;;;;5041000;28;20599;-74
2022/10/11 12:38:13;;;;;;;8.45;6.10;;;27.20;96.70;;;;;;5043427;28;20088;-74
2022/10/11 12:40:44;;;;;;;11.50;5.88;;;27.40;96.70;;;;;;5028919;28;20073;-74
2022/10/11 12:43:52;;;;;;;8.32;6.50;;;27.50;96.70;;;;;;5042708;28;20691;-74
2022/10/11 12:46:39;;;;;;;8.05;6.90;;;27.50;96.70;;;;;;5029390;28;20049;-74
2022/10/11 12:49:25;;;;;;;6.78;5.85;;;27.30;96.70;;;;;;5027202;28;20080;-74
2022/10/11 12:51:59;;;;;;;11.45;5.88;;;27.20;96.70;;;;;;5036689;28;20137;-74
2022/10/11 12:55:08;;;;;;;5.90;5.32;;;27.10;96.70;;;;;;5082879;28;20048;-74
2022/10/11 12:57:54;;;;;;;6.88;5.78;;;27.00;96.70;;;;;;5074177;28;20059;-74
2022/10/11 13:00:27;;;;;;;8.03;5.43;;;26.70;96.70;;;;;;5084400;28;20055;-74
2022/10/11 13:02:56;;;;;;;4.72;4.28;;;26.60;96.70;;;;;;5085174;28;20047;-74
2022/10/11 13:05:27;;;;;;;6.30;5.68;;;26.50;96.70;;;;;;5083069;28;20139;-74
2022/10/11 13:07:58;;;;;;;5.97;4.68;;;26.40;96.70;;;;;;5082780;28;20451;-74
2022/10/11 13:10:31;;;;;;;8.25;5.22;;;26.30;96.70;;;;;;5086983;28;20097;-74